sensor_id;sensor_type;location;lat;lon;timestamp;P1;durP1;ratioP1;P2;durP2;ratioP2
22737;SDS011;11536;50.860;4.286;2022-08-01T00:02:02;4.05;;;1.15;;
22737;SDS011;11536;50.860;4.286;2022-08-01T00:04:28;5.90;;;1.20;;
22737;SDS011;11536;50.860;4.286;2022-08-01T00:06:53;3.50;;;1.02;;
22737;SDS011;11536;50.860;4.286;2022-08-01T00:09:19;5.68;;;1.00;;
22737;SDS011;11536;50.860;4.286;2022-08-01T00:11:44;5.47;;;1.55;;
22737;SDS011;11536;50.860;4.286;2022-08-01T00:14:10;3.08;;;1.20;;
22737;SDS011;11536;50.860;4.286;2022-08-01T00:16:36;3.80;;;1.38;;
22737;SDS011;11536;50.860;4.286;2022-08-01T00:19:02;6.88;;;1.98;;
22737;SDS011;11536;50.860;4.286;2022-08-01T00:21:28;6.38;;;1.55;;
22737;SDS011;11536;50.860;4.286;2022-08-01T00:23:54;4.22;;;1.67;;
22737;SDS011;11536;50.860;4.286;2022-08-01T00:26:19;5.25;;;1.58;;
22737;SDS011;11536;50.860;4.286;2022-08-01T00:28:45;7.43;;;2.17;;
22737;SDS011;11536;50.860;4.286;2022-08-01T00:31:11;5.25;;;1.67;;
22737;SDS011;11536;50.860;4.286;2022-08-01T00:33:37;5.05;;;1.42;;
22737;SDS011;11536;50.860;4.286;2022-08-01T00:36:02;5.13;;;1.58;;
22737;SDS011;11536;50.860;4.286;2022-08-01T00:38:28;5.57;;;1.77;;
22737;SDS011;11536;50.860;4.286;2022-08-01T00:40:54;3.72;;;1.50;;
22737;SDS011;11536;50.860;4.286;2022-08-01T00:43:19;3.70;;;1.40;;
22737;SDS011;11536;50.860;4.286;2022-08-01T00:45:45;6.57;;;1.48;;
22737;SDS011;11536;50.860;4.286;2022-08-01T00:48:10;4.57;;;1.30;;
22737;SDS011;11536;50.860;4.286;2022-08-01T00:50:36;3.90;;;1.40;;
22737;SDS011;11536;50.860;4.286;2022-08-01T00:53:03;5.53;;;1.73;;
22737;SDS011;11536;50.860;4.286;2022-08-01T00:55:28;4.95;;;1.50;;
22737;SDS011;11536;50.860;4.286;2022-08-01T00:57:55;3.83;;;1.75;;
22737;SDS011;11536;50.860;4.286;2022-08-01T01:00:23;4.00;;;1.70;;
22737;SDS011;11536;50.860;4.286;2022-08-01T01:02:49;6.07;;;2.03;;
22737;SDS011;11536;50.860;4.286;2022-08-01T01:05:15;7.43;;;2.30;;
22737;SDS011;11536;50.860;4.286;2022-08-01T01:08:27;5.38;;;2.03;;
22737;SDS011;11536;50.860;4.286;2022-08-01T01:11:09;5.72;;;2.20;;
22737;SDS011;11536;50.860;4.286;2022-08-01T01:13:41;4.95;;;1.90;;
22737;SDS011;11536;50.860;4.286;2022-08-01T01:16:12;5.18;;;2.08;;
22737;SDS011;11536;50.860;4.286;2022-08-01T01:18:45;5.90;;;2.05;;
22737;SDS011;11536;50.860;4.286;2022-08-01T01:23:55;8.38;;;2.55;;
22737;SDS011;11536;50.860;4.286;2022-08-01T01:29:17;8.05;;;3.72;;
22737;SDS011;11536;50.860;4.286;2022-08-01T01:31:47;9.02;;;4.13;;
22737;SDS011;11536;50.860;4.286;2022-08-01T01:34:17;10.82;;;4.90;;
22737;SDS011;11536;50.860;4.286;2022-08-01T01:36:46;10.30;;;5.13;;
22737;SDS011;11536;50.860;4.286;2022-08-01T01:39:13;11.35;;;5.30;;
22737;SDS011;11536;50.860;4.286;2022-08-01T01:41:40;11.75;;;5.75;;
22737;SDS011;11536;50.860;4.286;2022-08-01T01:44:08;12.57;;;5.28;;
22737;SDS011;11536;50.860;4.286;2022-08-01T01:46:35;12.13;;;5.70;;
22737;SDS011;11536;50.860;4.286;2022-08-01T01:49:02;11.07;;;4.90;;
22737;SDS011;11536;50.860;4.286;2022-08-01T01:51:29;13.32;;;5.47;;
22737;SDS011;11536;50.860;4.286;2022-08-01T01:53:55;11.93;;;5.30;;
22737;SDS011;11536;50.860;4.286;2022-08-01T01:56:22;10.38;;;4.63;;
22737;SDS011;11536;50.860;4.286;2022-08-01T01:58:52;11.88;;;4.53;;
22737;SDS011;11536;50.860;4.286;2022-08-01T02:01:21;11.45;;;4.80;;
22737;SDS011;11536;50.860;4.286;2022-08-01T02:03:50;10.57;;;4.40;;
22737;SDS011;11536;50.860;4.286;2022-08-01T02:06:18;12.88;;;5.07;;
22737;SDS011;11536;50.860;4.286;2022-08-01T02:08:45;9.15;;;4.20;;
22737;SDS011;11536;50.860;4.286;2022-08-01T02:11:12;9.85;;;4.35;;
22737;SDS011;11536;50.860;4.286;2022-08-01T02:13:46;12.48;;;4.90;;
22737;SDS011;11536;50.860;4.286;2022-08-01T02:16:17;14.40;;;5.80;;
22737;SDS011;11536;50.860;4.286;2022-08-01T02:18:44;9.25;;;4.00;;
22737;SDS011;11536;50.860;4.286;2022-08-01T02:21:11;8.80;;;3.83;;
22737;SDS011;11536;50.860;4.286;2022-08-01T02:23:41;9.52;;;4.38;;
22737;SDS011;11536;50.860;4.286;2022-08-01T02:26:07;13.68;;;4.60;;
22737;SDS011;11536;50.860;4.286;2022-08-01T02:28:43;14.85;;;4.57;;
22737;SDS011;11536;50.860;4.286;2022-08-01T02:31:15;10.63;;;4.80;;
22737;SDS011;11536;50.860;4.286;2022-08-01T02:33:44;14.27;;;5.10;;
22737;SDS011;11536;50.860;4.286;2022-08-01T02:36:16;10.52;;;4.90;;
22737;SDS011;11536;50.860;4.286;2022-08-01T02:38:44;17.13;;;5.13;;
22737;SDS011;11536;50.860;4.286;2022-08-01T02:41:12;12.88;;;4.75;;
22737;SDS011;11536;50.860;4.286;2022-08-01T02:43:45;11.90;;;4.78;;
22737;SDS011;11536;50.860;4.286;2022-08-01T02:46:16;12.90;;;4.78;;
22737;SDS011;11536;50.860;4.286;2022-08-01T02:48:46;11.63;;;4.53;;
22737;SDS011;11536;50.860;4.286;2022-08-01T02:51:15;13.98;;;5.05;;
22737;SDS011;11536;50.860;4.286;2022-08-01T02:53:42;14.07;;;4.88;;
22737;SDS011;11536;50.860;4.286;2022-08-01T02:56:08;12.27;;;4.25;;
22737;SDS011;11536;50.860;4.286;2022-08-01T02:58:36;11.15;;;4.10;;
22737;SDS011;11536;50.860;4.286;2022-08-01T03:01:06;12.52;;;4.93;;
22737;SDS011;11536;50.860;4.286;2022-08-01T03:03:32;11.68;;;4.82;;
22737;SDS011;11536;50.860;4.286;2022-08-01T03:05:59;15.15;;;5.45;;
22737;SDS011;11536;50.860;4.286;2022-08-01T03:08:25;11.10;;;5.00;;
22737;SDS011;11536;50.860;4.286;2022-08-01T03:10:53;14.02;;;5.00;;
22737;SDS011;11536;50.860;4.286;2022-08-01T03:13:21;11.70;;;5.28;;
22737;SDS011;11536;50.860;4.286;2022-08-01T03:15:48;11.00;;;4.95;;
22737;SDS011;11536;50.860;4.286;2022-08-01T03:18:15;11.52;;;4.57;;
22737;SDS011;11536;50.860;4.286;2022-08-01T03:20:43;10.45;;;5.20;;
22737;SDS011;11536;50.860;4.286;2022-08-01T03:23:11;10.77;;;4.53;;
22737;SDS011;11536;50.860;4.286;2022-08-01T03:25:38;10.82;;;5.15;;
22737;SDS011;11536;50.860;4.286;2022-08-01T03:28:06;14.02;;;6.00;;
22737;SDS011;11536;50.860;4.286;2022-08-01T03:30:33;13.18;;;6.20;;
22737;SDS011;11536;50.860;4.286;2022-08-01T03:33:01;13.52;;;6.90;;
22737;SDS011;11536;50.860;4.286;2022-08-01T03:35:33;17.73;;;8.15;;
22737;SDS011;11536;50.860;4.286;2022-08-01T03:38:03;14.75;;;6.32;;
22737;SDS011;11536;50.860;4.286;2022-08-01T03:43:05;15.27;;;7.35;;
22737;SDS011;11536;50.860;4.286;2022-08-01T03:45:35;12.88;;;6.93;;
22737;SDS011;11536;50.860;4.286;2022-08-01T03:48:05;15.85;;;6.88;;
22737;SDS011;11536;50.860;4.286;2022-08-01T03:50:43;14.10;;;7.20;;
22737;SDS011;11536;50.860;4.286;2022-08-01T03:53:12;15.52;;;7.60;;
22737;SDS011;11536;50.860;4.286;2022-08-01T03:55:39;16.25;;;8.20;;
22737;SDS011;11536;50.860;4.286;2022-08-01T03:58:07;15.05;;;7.85;;
22737;SDS011;11536;50.860;4.286;2022-08-01T04:00:35;15.65;;;8.45;;
22737;SDS011;11536;50.860;4.286;2022-08-01T04:03:04;16.15;;;8.77;;
22737;SDS011;11536;50.860;4.286;2022-08-01T04:05:32;13.38;;;7.63;;
22737;SDS011;11536;50.860;4.286;2022-08-01T04:07:58;14.48;;;7.75;;
22737;SDS011;11536;50.860;4.286;2022-08-01T04:10:26;14.95;;;9.18;;
22737;SDS011;11536;50.860;4.286;2022-08-01T04:12:52;18.92;;;9.48;;
22737;SDS011;11536;50.860;4.286;2022-08-01T04:15:18;15.27;;;9.07;;
22737;SDS011;11536;50.860;4.286;2022-08-01T04:17:45;15.50;;;8.35;;
22737;SDS011;11536;50.860;4.286;2022-08-01T04:20:11;12.93;;;7.75;;
22737;SDS011;11536;50.860;4.286;2022-08-01T04:22:37;17.58;;;8.98;;
22737;SDS011;11536;50.860;4.286;2022-08-01T04:25:04;13.85;;;7.03;;
22737;SDS011;11536;50.860;4.286;2022-08-01T04:27:36;22.40;;;10.35;;
22737;SDS011;11536;50.860;4.286;2022-08-01T04:30:05;16.48;;;8.43;;
22737;SDS011;11536;50.860;4.286;2022-08-01T04:32:33;15.23;;;8.07;;
22737;SDS011;11536;50.860;4.286;2022-08-01T04:35:01;14.40;;;7.50;;
22737;SDS011;11536;50.860;4.286;2022-08-01T04:37:29;14.18;;;8.18;;
22737;SDS011;11536;50.860;4.286;2022-08-01T04:39:56;13.52;;;7.35;;
22737;SDS011;11536;50.860;4.286;2022-08-01T04:42:24;15.75;;;6.85;;
22737;SDS011;11536;50.860;4.286;2022-08-01T04:44:50;13.02;;;6.72;;
22737;SDS011;11536;50.860;4.286;2022-08-01T04:47:16;11.73;;;6.80;;
22737;SDS011;11536;50.860;4.286;2022-08-01T04:49:42;10.18;;;6.18;;
22737;SDS011;11536;50.860;4.286;2022-08-01T04:52:10;13.25;;;6.70;;
22737;SDS011;11536;50.860;4.286;2022-08-01T04:54:36;17.17;;;7.80;;
22737;SDS011;11536;50.860;4.286;2022-08-01T04:57:02;12.52;;;5.70;;
22737;SDS011;11536;50.860;4.286;2022-08-01T04:59:29;12.95;;;6.85;;
22737;SDS011;11536;50.860;4.286;2022-08-01T05:02:05;12.95;;;6.93;;
22737;SDS011;11536;50.860;4.286;2022-08-01T05:04:38;14.35;;;7.15;;
22737;SDS011;11536;50.860;4.286;2022-08-01T05:07:05;16.02;;;7.15;;
22737;SDS011;11536;50.860;4.286;2022-08-01T05:09:31;12.90;;;6.80;;
22737;SDS011;11536;50.860;4.286;2022-08-01T05:11:58;10.60;;;5.63;;
22737;SDS011;11536;50.860;4.286;2022-08-01T05:14:26;14.13;;;6.55;;
22737;SDS011;11536;50.860;4.286;2022-08-01T05:16:53;10.60;;;6.25;;
22737;SDS011;11536;50.860;4.286;2022-08-01T05:19:19;12.65;;;5.47;;
22737;SDS011;11536;50.860;4.286;2022-08-01T05:21:45;14.10;;;5.72;;
22737;SDS011;11536;50.860;4.286;2022-08-01T05:24:11;12.88;;;5.68;;
22737;SDS011;11536;50.860;4.286;2022-08-01T05:26:37;10.88;;;5.85;;
22737;SDS011;11536;50.860;4.286;2022-08-01T05:29:03;11.93;;;5.75;;
22737;SDS011;11536;50.860;4.286;2022-08-01T05:31:29;10.57;;;5.68;;
22737;SDS011;11536;50.860;4.286;2022-08-01T05:33:55;15.65;;;6.50;;
22737;SDS011;11536;50.860;4.286;2022-08-01T05:36:20;15.82;;;6.32;;
22737;SDS011;11536;50.860;4.286;2022-08-01T05:38:46;11.02;;;6.28;;
22737;SDS011;11536;50.860;4.286;2022-08-01T05:41:12;12.45;;;6.22;;
22737;SDS011;11536;50.860;4.286;2022-08-01T05:43:37;11.73;;;5.82;;
22737;SDS011;11536;50.860;4.286;2022-08-01T05:46:03;10.75;;;5.05;;
22737;SDS011;11536;50.860;4.286;2022-08-01T05:48:28;9.85;;;5.05;;
22737;SDS011;11536;50.860;4.286;2022-08-01T05:50:55;9.10;;;4.05;;
22737;SDS011;11536;50.860;4.286;2022-08-01T05:53:21;10.10;;;4.40;;
22737;SDS011;11536;50.860;4.286;2022-08-01T05:55:46;10.15;;;4.85;;
22737;SDS011;11536;50.860;4.286;2022-08-01T05:58:12;13.85;;;6.05;;
22737;SDS011;11536;50.860;4.286;2022-08-01T06:00:38;11.88;;;5.90;;
22737;SDS011;11536;50.860;4.286;2022-08-01T06:03:04;11.55;;;5.07;;
22737;SDS011;11536;50.860;4.286;2022-08-01T06:05:29;11.07;;;5.40;;
22737;SDS011;11536;50.860;4.286;2022-08-01T06:07:55;11.10;;;4.68;;
22737;SDS011;11536;50.860;4.286;2022-08-01T06:10:20;10.20;;;4.90;;
22737;SDS011;11536;50.860;4.286;2022-08-01T06:12:46;11.93;;;5.65;;
22737;SDS011;11536;50.860;4.286;2022-08-01T06:15:12;9.15;;;5.20;;
22737;SDS011;11536;50.860;4.286;2022-08-01T06:17:37;10.10;;;5.32;;
22737;SDS011;11536;50.860;4.286;2022-08-01T06:20:04;10.35;;;4.50;;
22737;SDS011;11536;50.860;4.286;2022-08-01T06:22:31;10.02;;;4.15;;
22737;SDS011;11536;50.860;4.286;2022-08-01T06:24:57;9.00;;;4.28;;
22737;SDS011;11536;50.860;4.286;2022-08-01T06:27:22;9.73;;;4.40;;
22737;SDS011;11536;50.860;4.286;2022-08-01T06:29:49;7.57;;;3.50;;
22737;SDS011;11536;50.860;4.286;2022-08-01T06:32:18;9.18;;;3.95;;
22737;SDS011;11536;50.860;4.286;2022-08-01T06:34:44;7.55;;;3.13;;
22737;SDS011;11536;50.860;4.286;2022-08-01T06:37:10;10.52;;;3.80;;
22737;SDS011;11536;50.860;4.286;2022-08-01T06:39:38;6.55;;;3.42;;
22737;SDS011;11536;50.860;4.286;2022-08-01T06:42:03;7.03;;;3.20;;
22737;SDS011;11536;50.860;4.286;2022-08-01T06:44:29;5.50;;;2.80;;
22737;SDS011;11536;50.860;4.286;2022-08-01T06:46:55;6.75;;;3.00;;
22737;SDS011;11536;50.860;4.286;2022-08-01T06:49:23;6.68;;;3.25;;
22737;SDS011;11536;50.860;4.286;2022-08-01T06:51:49;6.38;;;2.70;;
22737;SDS011;11536;50.860;4.286;2022-08-01T06:54:14;6.70;;;2.42;;
22737;SDS011;11536;50.860;4.286;2022-08-01T06:56:41;6.82;;;2.65;;
22737;SDS011;11536;50.860;4.286;2022-08-01T06:59:07;6.90;;;2.55;;
22737;SDS011;11536;50.860;4.286;2022-08-01T07:01:33;6.65;;;2.67;;
22737;SDS011;11536;50.860;4.286;2022-08-01T07:03:59;5.50;;;2.65;;
22737;SDS011;11536;50.860;4.286;2022-08-01T07:06:25;4.80;;;2.05;;
22737;SDS011;11536;50.860;4.286;2022-08-01T07:08:55;6.07;;;2.40;;
22737;SDS011;11536;50.860;4.286;2022-08-01T07:11:22;3.92;;;1.45;;
22737;SDS011;11536;50.860;4.286;2022-08-01T07:13:49;5.15;;;1.70;;
22737;SDS011;11536;50.860;4.286;2022-08-01T07:16:15;3.78;;;1.30;;
22737;SDS011;11536;50.860;4.286;2022-08-01T07:18:41;3.00;;;1.15;;
22737;SDS011;11536;50.860;4.286;2022-08-01T07:21:07;4.00;;;1.20;;
22737;SDS011;11536;50.860;4.286;2022-08-01T07:23:33;3.83;;;1.30;;
22737;SDS011;11536;50.860;4.286;2022-08-01T07:25:58;3.92;;;1.30;;
22737;SDS011;11536;50.860;4.286;2022-08-01T07:28:26;3.40;;;1.27;;
22737;SDS011;11536;50.860;4.286;2022-08-01T07:30:52;3.75;;;1.58;;
22737;SDS011;11536;50.860;4.286;2022-08-01T07:33:18;5.65;;;1.58;;
22737;SDS011;11536;50.860;4.286;2022-08-01T07:35:43;3.40;;;1.35;;
22737;SDS011;11536;50.860;4.286;2022-08-01T07:38:09;4.18;;;1.45;;
22737;SDS011;11536;50.860;4.286;2022-08-01T07:40:35;5.82;;;1.73;;
22737;SDS011;11536;50.860;4.286;2022-08-01T07:43:00;4.20;;;1.45;;
22737;SDS011;11536;50.860;4.286;2022-08-01T07:45:26;4.22;;;1.40;;
22737;SDS011;11536;50.860;4.286;2022-08-01T07:47:51;3.42;;;1.60;;
22737;SDS011;11536;50.860;4.286;2022-08-01T07:50:17;5.55;;;1.70;;
22737;SDS011;11536;50.860;4.286;2022-08-01T07:52:43;4.90;;;1.67;;
22737;SDS011;11536;50.860;4.286;2022-08-01T07:55:10;4.60;;;1.70;;
22737;SDS011;11536;50.860;4.286;2022-08-01T07:57:36;4.93;;;1.80;;
22737;SDS011;11536;50.860;4.286;2022-08-01T08:00:03;5.32;;;1.92;;
22737;SDS011;11536;50.860;4.286;2022-08-01T08:02:34;3.03;;;1.50;;
22737;SDS011;11536;50.860;4.286;2022-08-01T08:05:00;6.15;;;2.00;;
22737;SDS011;11536;50.860;4.286;2022-08-01T08:07:25;4.03;;;1.92;;
22737;SDS011;11536;50.860;4.286;2022-08-01T08:09:51;4.50;;;1.88;;
22737;SDS011;11536;50.860;4.286;2022-08-01T08:12:16;4.57;;;1.85;;
22737;SDS011;11536;50.860;4.286;2022-08-01T08:14:42;4.28;;;2.13;;
22737;SDS011;11536;50.860;4.286;2022-08-01T08:17:08;4.03;;;2.05;;
22737;SDS011;11536;50.860;4.286;2022-08-01T08:19:33;3.53;;;1.98;;
22737;SDS011;11536;50.860;4.286;2022-08-01T08:22:02;4.85;;;2.40;;
22737;SDS011;11536;50.860;4.286;2022-08-01T08:24:27;5.05;;;2.80;;
22737;SDS011;11536;50.860;4.286;2022-08-01T08:26:54;8.02;;;2.95;;
22737;SDS011;11536;50.860;4.286;2022-08-01T08:29:22;6.15;;;2.58;;
22737;SDS011;11536;50.860;4.286;2022-08-01T08:31:48;5.72;;;2.75;;
22737;SDS011;11536;50.860;4.286;2022-08-01T08:34:14;5.63;;;2.60;;
22737;SDS011;11536;50.860;4.286;2022-08-01T08:36:40;5.22;;;2.75;;
22737;SDS011;11536;50.860;4.286;2022-08-01T08:39:06;5.75;;;2.92;;
22737;SDS011;11536;50.860;4.286;2022-08-01T08:41:32;6.35;;;2.90;;
22737;SDS011;11536;50.860;4.286;2022-08-01T08:44:00;4.63;;;2.60;;
22737;SDS011;11536;50.860;4.286;2022-08-01T08:46:26;5.57;;;2.30;;
22737;SDS011;11536;50.860;4.286;2022-08-01T08:48:53;5.10;;;2.67;;
22737;SDS011;11536;50.860;4.286;2022-08-01T08:51:23;7.32;;;2.78;;
22737;SDS011;11536;50.860;4.286;2022-08-01T08:53:50;6.68;;;2.55;;
22737;SDS011;11536;50.860;4.286;2022-08-01T08:56:19;5.93;;;3.33;;
22737;SDS011;11536;50.860;4.286;2022-08-01T08:58:46;4.40;;;2.35;;
22737;SDS011;11536;50.860;4.286;2022-08-01T09:01:12;7.63;;;2.20;;
22737;SDS011;11536;50.860;4.286;2022-08-01T09:03:38;4.68;;;1.45;;
22737;SDS011;11536;50.860;4.286;2022-08-01T09:06:04;3.35;;;1.20;;
22737;SDS011;11536;50.860;4.286;2022-08-01T09:08:30;4.70;;;1.25;;
22737;SDS011;11536;50.860;4.286;2022-08-01T09:10:55;5.82;;;1.23;;
22737;SDS011;11536;50.860;4.286;2022-08-01T09:13:21;3.53;;;1.17;;
22737;SDS011;11536;50.860;4.286;2022-08-01T09:15:48;3.47;;;1.10;;
22737;SDS011;11536;50.860;4.286;2022-08-01T09:18:29;3.13;;;1.05;;
22737;SDS011;11536;50.860;4.286;2022-08-01T09:21:16;2.67;;;1.00;;
22737;SDS011;11536;50.860;4.286;2022-08-01T09:23:51;5.43;;;1.40;;
22737;SDS011;11536;50.860;4.286;2022-08-01T09:26:19;4.15;;;1.00;;
22737;SDS011;11536;50.860;4.286;2022-08-01T09:28:56;2.78;;;1.10;;
22737;SDS011;11536;50.860;4.286;2022-08-01T09:31:25;3.20;;;1.17;;
22737;SDS011;11536;50.860;4.286;2022-08-01T09:33:56;2.15;;;0.85;;
22737;SDS011;11536;50.860;4.286;2022-08-01T09:36:27;2.55;;;0.77;;
22737;SDS011;11536;50.860;4.286;2022-08-01T09:39:16;2.83;;;0.80;;
22737;SDS011;11536;50.860;4.286;2022-08-01T09:41:42;3.33;;;1.00;;
22737;SDS011;11536;50.860;4.286;2022-08-01T09:44:08;2.22;;;0.70;;
22737;SDS011;11536;50.860;4.286;2022-08-01T09:46:34;1.85;;;0.50;;
22737;SDS011;11536;50.860;4.286;2022-08-01T09:49:03;6.30;;;0.70;;
22737;SDS011;11536;50.860;4.286;2022-08-01T09:51:34;4.78;;;0.60;;
22737;SDS011;11536;50.860;4.286;2022-08-01T09:54:01;2.22;;;0.63;;
22737;SDS011;11536;50.860;4.286;2022-08-01T09:56:37;1.90;;;0.60;;
22737;SDS011;11536;50.860;4.286;2022-08-01T09:59:05;1.92;;;0.52;;
22737;SDS011;11536;50.860;4.286;2022-08-01T10:01:47;6.03;;;0.80;;
22737;SDS011;11536;50.860;4.286;2022-08-01T10:04:15;2.42;;;0.68;;
22737;SDS011;11536;50.860;4.286;2022-08-01T10:06:44;1.85;;;0.70;;
22737;SDS011;11536;50.860;4.286;2022-08-01T10:09:12;1.88;;;0.70;;
22737;SDS011;11536;50.860;4.286;2022-08-01T10:11:40;2.28;;;0.60;;
22737;SDS011;11536;50.860;4.286;2022-08-01T10:14:07;2.10;;;0.70;;
22737;SDS011;11536;50.860;4.286;2022-08-01T10:16:34;2.35;;;0.85;;
22737;SDS011;11536;50.860;4.286;2022-08-01T10:19:02;2.25;;;0.80;;
22737;SDS011;11536;50.860;4.286;2022-08-01T10:21:30;1.48;;;0.60;;
22737;SDS011;11536;50.860;4.286;2022-08-01T10:23:59;1.48;;;0.60;;
22737;SDS011;11536;50.860;4.286;2022-08-01T10:26:27;1.63;;;0.60;;
22737;SDS011;11536;50.860;4.286;2022-08-01T10:28:56;1.27;;;0.60;;
22737;SDS011;11536;50.860;4.286;2022-08-01T10:31:22;1.80;;;0.57;;
22737;SDS011;11536;50.860;4.286;2022-08-01T10:33:48;1.58;;;0.57;;
22737;SDS011;11536;50.860;4.286;2022-08-01T10:36:17;1.83;;;0.57;;
22737;SDS011;11536;50.860;4.286;2022-08-01T10:38:46;2.30;;;0.55;;
22737;SDS011;11536;50.860;4.286;2022-08-01T10:41:12;2.45;;;0.75;;
22737;SDS011;11536;50.860;4.286;2022-08-01T10:43:40;1.98;;;0.60;;
22737;SDS011;11536;50.860;4.286;2022-08-01T10:46:06;2.92;;;0.70;;
22737;SDS011;11536;50.860;4.286;2022-08-01T10:48:49;0.90;;;0.47;;
22737;SDS011;11536;50.860;4.286;2022-08-01T10:51:21;1.55;;;0.47;;
22737;SDS011;11536;50.860;4.286;2022-08-01T10:53:52;2.55;;;0.60;;
22737;SDS011;11536;50.860;4.286;2022-08-01T10:56:19;1.80;;;0.68;;
22737;SDS011;11536;50.860;4.286;2022-08-01T10:58:46;1.90;;;0.40;;
22737;SDS011;11536;50.860;4.286;2022-08-01T11:01:14;3.22;;;0.63;;
22737;SDS011;11536;50.860;4.286;2022-08-01T11:03:43;3.20;;;0.50;;
22737;SDS011;11536;50.860;4.286;2022-08-01T11:06:22;1.25;;;0.47;;
22737;SDS011;11536;50.860;4.286;2022-08-01T11:08:57;1.08;;;0.50;;
22737;SDS011;11536;50.860;4.286;2022-08-01T11:11:25;4.07;;;0.45;;
22737;SDS011;11536;50.860;4.286;2022-08-01T11:14:00;1.65;;;0.70;;
22737;SDS011;11536;50.860;4.286;2022-08-01T11:16:30;2.10;;;0.57;;
22737;SDS011;11536;50.860;4.286;2022-08-01T11:18:57;2.17;;;0.50;;
22737;SDS011;11536;50.860;4.286;2022-08-01T11:21:40;1.77;;;0.52;;
22737;SDS011;11536;50.860;4.286;2022-08-01T11:25:02;1.60;;;0.50;;
22737;SDS011;11536;50.860;4.286;2022-08-01T11:27:18;2.50;;;0.50;;
22737;SDS011;11536;50.860;4.286;2022-08-01T11:32:49;1.00;;;0.50;;
22737;SDS011;11536;50.860;4.286;2022-08-01T11:35:32;1.65;;;0.70;;
22737;SDS011;11536;50.860;4.286;2022-08-01T11:52:04;1.67;;;0.47;;
22737;SDS011;11536;50.860;4.286;2022-08-01T11:57:06;3.72;;;0.77;;
22737;SDS011;11536;50.860;4.286;2022-08-01T11:59:55;2.60;;;0.60;;
22737;SDS011;11536;50.860;4.286;2022-08-01T12:02:24;2.17;;;0.80;;
22737;SDS011;11536;50.860;4.286;2022-08-01T12:05:00;2.45;;;0.60;;
22737;SDS011;11536;50.860;4.286;2022-08-01T12:07:29;1.85;;;0.57;;
22737;SDS011;11536;50.860;4.286;2022-08-01T12:10:15;4.28;;;0.90;;
22737;SDS011;11536;50.860;4.286;2022-08-01T12:12:47;2.20;;;0.50;;
22737;SDS011;11536;50.860;4.286;2022-08-01T12:17:43;2.78;;;0.70;;
22737;SDS011;11536;50.860;4.286;2022-08-01T12:20:14;1.98;;;0.70;;
22737;SDS011;11536;50.860;4.286;2022-08-01T12:22:44;6.03;;;0.70;;
22737;SDS011;11536;50.860;4.286;2022-08-01T12:25:13;1.70;;;0.55;;
22737;SDS011;11536;50.860;4.286;2022-08-01T12:27:40;4.13;;;0.90;;
22737;SDS011;11536;50.860;4.286;2022-08-01T12:30:08;1.80;;;0.50;;
22737;SDS011;11536;50.860;4.286;2022-08-01T12:32:36;3.47;;;0.90;;
22737;SDS011;11536;50.860;4.286;2022-08-01T12:35:16;2.80;;;0.60;;
22737;SDS011;11536;50.860;4.286;2022-08-01T12:37:45;3.45;;;0.80;;
22737;SDS011;11536;50.860;4.286;2022-08-01T12:40:20;1.85;;;0.65;;
22737;SDS011;11536;50.860;4.286;2022-08-01T12:42:50;1.77;;;0.60;;
22737;SDS011;11536;50.860;4.286;2022-08-01T12:45:19;1.83;;;0.50;;
22737;SDS011;11536;50.860;4.286;2022-08-01T12:47:51;2.17;;;0.68;;
22737;SDS011;11536;50.860;4.286;2022-08-01T12:50:18;1.95;;;0.60;;
22737;SDS011;11536;50.860;4.286;2022-08-01T12:52:46;1.35;;;0.63;;
22737;SDS011;11536;50.860;4.286;2022-08-01T12:55:19;4.47;;;1.00;;
22737;SDS011;11536;50.860;4.286;2022-08-01T12:57:50;3.30;;;1.05;;
22737;SDS011;11536;50.860;4.286;2022-08-01T13:00:28;3.25;;;1.02;;
22737;SDS011;11536;50.860;4.286;2022-08-01T13:03:02;1.77;;;0.80;;
22737;SDS011;11536;50.860;4.286;2022-08-01T13:05:55;2.23;;;0.70;;
22737;SDS011;11536;50.860;4.286;2022-08-01T13:08:24;2.78;;;0.70;;
22737;SDS011;11536;50.860;4.286;2022-08-01T13:11:07;2.83;;;0.70;;
22737;SDS011;11536;50.860;4.286;2022-08-01T13:13:54;1.60;;;0.70;;
22737;SDS011;11536;50.860;4.286;2022-08-01T13:16:27;2.50;;;0.70;;
22737;SDS011;11536;50.860;4.286;2022-08-01T13:18:53;2.42;;;0.60;;
22737;SDS011;11536;50.860;4.286;2022-08-01T13:21:28;1.73;;;0.60;;
22737;SDS011;11536;50.860;4.286;2022-08-01T13:24:10;4.93;;;0.90;;
22737;SDS011;11536;50.860;4.286;2022-08-01T13:26:41;2.50;;;0.50;;
22737;SDS011;11536;50.860;4.286;2022-08-01T13:29:22;3.78;;;0.70;;
22737;SDS011;11536;50.860;4.286;2022-08-01T13:31:58;3.03;;;0.90;;
22737;SDS011;11536;50.860;4.286;2022-08-01T13:34:34;3.47;;;0.70;;
22737;SDS011;11536;50.860;4.286;2022-08-01T13:37:00;2.70;;;0.52;;
22737;SDS011;11536;50.860;4.286;2022-08-01T13:39:27;1.60;;;0.70;;
22737;SDS011;11536;50.860;4.286;2022-08-01T13:42:05;2.58;;;0.80;;
22737;SDS011;11536;50.860;4.286;2022-08-01T13:44:31;3.38;;;0.90;;
22737;SDS011;11536;50.860;4.286;2022-08-01T13:46:57;2.80;;;0.80;;
22737;SDS011;11536;50.860;4.286;2022-08-01T13:49:22;2.28;;;1.02;;
22737;SDS011;11536;50.860;4.286;2022-08-01T13:51:48;3.00;;;0.70;;
22737;SDS011;11536;50.860;4.286;2022-08-01T13:54:15;3.67;;;0.80;;
22737;SDS011;11536;50.860;4.286;2022-08-01T13:56:41;3.63;;;0.70;;
22737;SDS011;11536;50.860;4.286;2022-08-01T13:59:07;3.60;;;0.70;;
22737;SDS011;11536;50.860;4.286;2022-08-01T14:01:33;3.17;;;0.80;;
22737;SDS011;11536;50.860;4.286;2022-08-01T14:03:59;3.63;;;0.80;;
22737;SDS011;11536;50.860;4.286;2022-08-01T14:06:25;3.15;;;0.77;;
22737;SDS011;11536;50.860;4.286;2022-08-01T14:08:50;5.53;;;0.80;;
22737;SDS011;11536;50.860;4.286;2022-08-01T14:11:16;2.13;;;0.63;;
22737;SDS011;11536;50.860;4.286;2022-08-01T14:13:42;2.15;;;0.57;;
22737;SDS011;11536;50.860;4.286;2022-08-01T14:16:08;2.50;;;0.70;;
22737;SDS011;11536;50.860;4.286;2022-08-01T14:18:34;3.17;;;0.98;;
22737;SDS011;11536;50.860;4.286;2022-08-01T14:20:59;1.65;;;0.60;;
22737;SDS011;11536;50.860;4.286;2022-08-01T14:23:25;2.58;;;0.80;;
22737;SDS011;11536;50.860;4.286;2022-08-01T14:25:51;2.78;;;0.70;;
22737;SDS011;11536;50.860;4.286;2022-08-01T14:28:17;4.60;;;0.73;;
22737;SDS011;11536;50.860;4.286;2022-08-01T14:30:43;3.45;;;0.70;;
22737;SDS011;11536;50.860;4.286;2022-08-01T14:33:09;1.33;;;0.50;;
22737;SDS011;11536;50.860;4.286;2022-08-01T14:35:36;2.22;;;0.60;;
22737;SDS011;11536;50.860;4.286;2022-08-01T14:38:02;3.03;;;0.80;;
22737;SDS011;11536;50.860;4.286;2022-08-01T14:40:28;1.92;;;0.80;;
22737;SDS011;11536;50.860;4.286;2022-08-01T14:42:54;3.10;;;0.80;;
22737;SDS011;11536;50.860;4.286;2022-08-01T14:45:23;1.35;;;0.70;;
22737;SDS011;11536;50.860;4.286;2022-08-01T14:47:49;1.90;;;0.70;;
22737;SDS011;11536;50.860;4.286;2022-08-01T14:50:15;2.80;;;0.65;;
22737;SDS011;11536;50.860;4.286;2022-08-01T14:52:41;1.80;;;0.80;;
22737;SDS011;11536;50.860;4.286;2022-08-01T14:55:08;2.55;;;0.70;;
22737;SDS011;11536;50.860;4.286;2022-08-01T14:57:35;2.72;;;0.73;;
22737;SDS011;11536;50.860;4.286;2022-08-01T15:00:08;3.42;;;0.77;;
22737;SDS011;11536;50.860;4.286;2022-08-01T15:02:39;3.63;;;0.80;;
22737;SDS011;11536;50.860;4.286;2022-08-01T15:05:06;2.90;;;0.77;;
22737;SDS011;11536;50.860;4.286;2022-08-01T15:07:32;1.75;;;0.77;;
22737;SDS011;11536;50.860;4.286;2022-08-01T15:09:58;2.78;;;0.68;;
22737;SDS011;11536;50.860;4.286;2022-08-01T15:12:23;2.47;;;0.60;;
22737;SDS011;11536;50.860;4.286;2022-08-01T15:14:49;1.38;;;0.70;;
22737;SDS011;11536;50.860;4.286;2022-08-01T15:19:47;2.90;;;0.50;;
22737;SDS011;11536;50.860;4.286;2022-08-01T15:22:15;1.98;;;0.52;;
22737;SDS011;11536;50.860;4.286;2022-08-01T15:24:41;3.15;;;0.73;;